RJSS(METAR)
02/19 09:00
METAR RJSS 190000Z 35004KT 9999 FEW030 BKN120 04/M02 Q1026 RMK
1SC030 7AC120 A3031=
戻る
トップページへ戻る
IMOC Co,.Ltd.